createdAt,value
2023-03-12T06:38:38.016Z,1.10
2023-03-12T06:41:08.892Z,1.10
2023-03-12T06:43:37.370Z,0.90
2023-03-12T06:46:12.868Z,1.40
2023-03-12T06:48:42.156Z,1.70
2023-03-12T06:51:11.100Z,1.80
2023-03-12T06:53:42.504Z,1.90
2023-03-12T06:56:11.304Z,1.80
2023-03-12T06:58:41.050Z,1.70
2023-03-12T07:01:09.630Z,1.10
2023-03-12T07:03:38.141Z,2.00
2023-03-12T07:06:12.490Z,2.20
2023-03-12T07:08:41.982Z,1.90
2023-03-12T07:11:10.508Z,1.60
2023-03-12T07:13:39.013Z,1.90
2023-03-12T07:16:07.823Z,1.40
2023-03-12T07:18:37.206Z,1.40
2023-03-12T07:21:05.978Z,1.30
2023-03-12T07:23:41.418Z,1.60
2023-03-12T07:26:09.866Z,1.70
2023-03-12T07:28:38.110Z,1.30
2023-03-12T07:31:07.694Z,1.20
2023-03-12T07:33:36.064Z,1.30
2023-03-12T07:36:05.028Z,1.10
2023-03-12T07:38:33.380Z,1.30
2023-03-12T07:41:01.789Z,1.50
2023-03-12T07:43:30.218Z,1.70
2023-03-12T07:45:59.061Z,2.40
2023-03-12T07:48:29.884Z,1.60
2023-03-12T07:50:58.000Z,1.80
2023-03-12T07:53:26.268Z,1.40
2023-03-12T07:55:55.060Z,1.60
2023-03-12T07:58:23.552Z,1.10
2023-03-12T08:00:53.737Z,0.90
2023-03-12T08:03:22.355Z,1.30
2023-03-12T08:05:58.134Z,1.30
2023-03-12T08:08:27.591Z,1.70
2023-03-12T08:10:55.920Z,1.40
2023-03-12T08:13:24.459Z,0.90
2023-03-12T08:15:56.846Z,1.00
2023-03-12T08:18:28.763Z,0.80
2023-03-12T08:20:59.328Z,1.00
2023-03-12T08:23:27.645Z,1.30
2023-03-12T08:25:55.753Z,1.10
2023-03-12T08:28:24.496Z,1.10
2023-03-12T08:30:54.330Z,1.00
2023-03-12T08:33:23.674Z,1.20
2023-03-12T08:35:51.898Z,1.60
2023-03-12T08:38:20.627Z,1.40
2023-03-12T08:40:56.140Z,1.30
2023-03-12T08:43:25.039Z,1.30
2023-03-12T08:46:02.891Z,1.10
2023-03-12T08:48:31.748Z,1.10
2023-03-12T08:51:04.192Z,1.10
2023-03-12T08:53:34.413Z,1.00
2023-03-12T08:56:04.492Z,1.20
2023-03-12T08:58:32.965Z,1.10
2023-03-12T09:01:01.265Z,1.00
2023-03-12T09:03:30.014Z,1.30
2023-03-12T09:06:13.079Z,1.10
2023-03-12T09:08:51.731Z,1.10
2023-03-12T09:11:21.046Z,1.20
2023-03-12T09:16:39.253Z,1.30
2023-03-12T09:19:07.701Z,1.30
2023-03-12T09:21:38.312Z,1.10
2023-03-12T09:24:07.897Z,1.30
2023-03-12T09:26:36.240Z,1.50
2023-03-12T09:29:06.696Z,4.30
2023-03-12T09:31:36.351Z,1.10
2023-03-12T09:34:06.673Z,2.00
2023-03-12T09:36:35.923Z,1.30
2023-03-12T09:39:05.186Z,1.80
2023-03-12T09:41:36.347Z,1.40
2023-03-12T09:44:14.104Z,1.40
2023-03-12T09:46:51.020Z,1.30
2023-03-12T09:49:40.629Z,1.50
2023-03-12T09:52:39.948Z,1.60
2023-03-12T09:55:17.415Z,1.40
2023-03-12T09:57:51.481Z,3.60
2023-03-12T10:00:31.010Z,5.30
2023-03-12T10:03:21.386Z,1.50
2023-03-12T10:06:20.851Z,1.30
2023-03-12T10:08:55.406Z,2.40
2023-03-12T10:11:28.192Z,1.80
2023-03-12T10:14:08.152Z,2.00
2023-03-12T10:16:50.905Z,1.60
2023-03-12T10:19:42.506Z,1.50
2023-03-12T10:22:41.423Z,1.10
2023-03-12T10:25:37.027Z,1.20
2023-03-12T10:28:21.994Z,1.20
2023-03-12T10:30:58.649Z,1.10
2023-03-12T10:33:37.438Z,1.20
2023-03-12T10:36:15.633Z,1.20
2023-03-12T10:38:48.496Z,1.60
2023-03-12T10:41:25.410Z,2.00
2023-03-12T10:43:56.284Z,1.10
2023-03-12T10:46:44.773Z,1.50
2023-03-12T10:49:22.374Z,1.10
2023-03-12T10:52:17.329Z,1.20
2023-03-12T10:54:51.768Z,1.20
2023-03-12T10:57:21.154Z,1.50
2023-03-12T10:59:50.989Z,1.60
2023-03-12T11:02:35.362Z,1.30
2023-03-12T11:05:07.455Z,1.20
2023-03-12T11:07:36.395Z,1.50
2023-03-12T11:10:08.283Z,1.30
2023-03-12T11:12:40.546Z,1.00
2023-03-12T11:15:24.501Z,1.40
2023-03-12T11:17:52.793Z,1.10
2023-03-12T11:20:25.056Z,1.60
2023-03-12T11:22:54.750Z,1.80
2023-03-12T11:25:28.144Z,1.20
2023-03-12T11:27:59.606Z,1.60
2023-03-12T11:30:41.454Z,1.40
2023-03-12T11:33:10.974Z,1.70
2023-03-12T11:35:44.161Z,1.70
2023-03-12T11:38:22.043Z,1.30
2023-03-12T11:41:06.113Z,1.50
2023-03-12T11:43:43.174Z,1.30
2023-03-12T11:46:30.400Z,1.50
2023-03-12T11:49:13.934Z,1.60
2023-03-12T11:52:10.357Z,1.50
2023-03-12T11:54:53.991Z,1.40
2023-03-12T11:57:45.273Z,1.70
2023-03-12T12:00:21.889Z,1.80
2023-03-12T12:03:15.655Z,1.50
2023-03-12T12:05:59.321Z,1.70
2023-03-12T12:08:52.670Z,1.70
2023-03-12T12:11:21.035Z,2.10
2023-03-12T12:14:43.770Z,1.80
2023-03-12T12:17:25.997Z,1.90
2023-03-12T12:20:10.111Z,1.90
2023-03-12T12:22:51.211Z,2.10
2023-03-12T12:25:45.349Z,2.20
2023-03-12T12:28:22.736Z,2.60
2023-03-12T12:31:36.289Z,2.10
2023-03-12T12:34:25.559Z,2.60
2023-03-12T12:37:03.104Z,2.60
2023-03-12T12:39:36.895Z,2.90
2023-03-12T12:42:07.049Z,2.60
2023-03-12T12:44:39.398Z,3.00
2023-03-12T12:47:13.226Z,2.80
2023-03-12T12:49:52.399Z,2.60
2023-03-12T12:52:21.488Z,3.00
2023-03-12T12:55:05.501Z,3.10
2023-03-12T12:57:58.519Z,3.20
2023-03-12T13:00:46.595Z,3.30
2023-03-12T13:03:17.711Z,3.20
2023-03-12T13:06:03.127Z,4.00
2023-03-12T13:08:44.192Z,3.70
2023-03-12T13:11:20.024Z,3.90
2023-03-12T13:14:04.680Z,4.20
2023-03-12T13:16:46.656Z,4.20
2023-03-12T13:19:14.974Z,4.60
2023-03-12T13:22:15.391Z,4.60
2023-03-12T13:25:10.402Z,4.30
2023-03-12T13:27:40.993Z,4.50
2023-03-12T13:30:34.193Z,4.70
2023-03-12T13:33:06.639Z,4.60
2023-03-12T13:35:39.347Z,5.80
2023-03-12T13:38:12.952Z,4.90
2023-03-12T13:41:01.957Z,4.70
2023-03-12T13:43:49.819Z,5.00
2023-03-12T13:46:18.062Z,4.90
2023-03-12T13:48:47.967Z,4.80
2023-03-12T13:51:20.936Z,5.70
2023-03-12T13:53:59.734Z,5.80
2023-03-12T13:56:30.118Z,5.10
2023-03-12T13:59:03.708Z,5.60
2023-03-12T14:01:36.134Z,5.40
2023-03-12T14:04:12.351Z,5.20
2023-03-12T14:12:01.627Z,5.20
2023-03-12T14:15:02.182Z,5.70
2023-03-12T14:17:31.386Z,6.10
2023-03-12T14:20:04.506Z,5.90
2023-03-12T14:22:35.423Z,6.00
2023-03-12T14:25:25.914Z,6.00
2023-03-12T14:27:55.158Z,5.30
2023-03-12T14:30:25.665Z,5.80
2023-03-12T14:32:56.295Z,6.10
2023-03-12T14:36:09.571Z,6.80
2023-03-12T14:38:39.726Z,12.80
2023-03-12T14:41:13.425Z,3.70
2023-03-12T14:43:42.725Z,3.90
2023-03-12T14:46:20.233Z,3.40
2023-03-12T14:48:54.958Z,3.80
2023-03-12T14:51:28.996Z,5.30
2023-03-12T14:54:01.941Z,5.20
2023-03-12T14:56:35.403Z,4.20
2023-03-12T14:59:31.026Z,4.90
2023-03-12T15:02:21.452Z,4.70
2023-03-12T15:04:52.940Z,4.70
2023-03-12T15:07:35.341Z,4.90
2023-03-12T15:10:17.552Z,4.40
2023-03-12T15:12:47.030Z,4.90
2023-03-12T15:15:46.371Z,4.70
2023-03-12T15:18:27.365Z,4.90
2023-03-12T15:20:57.239Z,4.10
2023-03-12T15:23:27.324Z,3.20
2023-03-12T15:26:13.143Z,4.40
2023-03-12T15:28:42.572Z,3.80
2023-03-12T15:31:14.019Z,3.50
2023-03-12T15:33:46.601Z,4.10
2023-03-12T15:36:17.588Z,3.30
2023-03-12T15:38:47.690Z,3.60
2023-03-12T15:41:42.845Z,3.80
2023-03-12T15:44:18.968Z,3.40
2023-03-12T15:46:48.803Z,3.80
2023-03-12T15:49:27.559Z,4.10
2023-03-12T15:52:03.220Z,3.90
2023-03-12T15:54:33.722Z,3.90
2023-03-12T15:57:18.834Z,4.70
2023-03-12T16:00:08.308Z,5.40
2023-03-12T16:02:53.686Z,4.60
2023-03-12T16:05:33.314Z,4.20
2023-03-12T16:08:03.249Z,4.00
2023-03-12T16:10:32.656Z,3.90
2023-03-12T16:13:02.592Z,4.10
2023-03-12T16:15:33.967Z,4.30
2023-03-12T16:18:03.478Z,4.80
2023-03-12T16:20:31.795Z,3.00
2023-03-12T16:23:01.740Z,1.50
2023-03-12T16:25:29.917Z,1.10
2023-03-12T16:27:58.982Z,1.40
2023-03-12T16:30:35.824Z,1.30
2023-03-12T16:33:08.766Z,1.50
2023-03-12T16:35:38.603Z,1.60
2023-03-12T16:38:07.838Z,1.50
2023-03-12T16:40:38.976Z,2.00
2023-03-12T16:43:08.173Z,1.90
2023-03-12T16:45:36.622Z,2.00
2023-03-12T16:48:06.837Z,1.70
2023-03-12T16:50:35.097Z,2.00
2023-03-12T16:53:03.872Z,1.90
2023-03-12T16:55:43.560Z,2.30
2023-03-12T16:58:17.618Z,1.70
2023-03-12T17:00:47.292Z,2.20
2023-03-12T17:03:36.382Z,1.70
2023-03-12T17:06:08.340Z,3.00
2023-03-12T17:08:36.963Z,6.40
2023-03-12T17:11:25.759Z,4.40
2023-03-12T17:13:58.685Z,4.30
2023-03-12T17:16:28.095Z,4.50
2023-03-12T17:18:57.021Z,3.60
2023-03-12T17:21:25.791Z,3.40
2023-03-12T17:23:54.139Z,3.60
2023-03-12T17:26:22.760Z,4.20
2023-03-12T17:28:50.849Z,4.30
2023-03-12T17:31:21.438Z,3.80
2023-03-12T17:33:50.699Z,3.30
2023-03-12T17:36:20.561Z,3.60
2023-03-12T17:38:51.007Z,4.40
2023-03-12T17:41:26.560Z,3.60
2023-03-12T17:46:29.535Z,3.20
2023-03-12T17:49:02.592Z,3.40
2023-03-12T17:51:30.868Z,3.40
2023-03-12T17:53:58.920Z,3.70
2023-03-12T17:56:27.497Z,3.50
2023-03-12T17:58:55.669Z,4.00
2023-03-12T18:01:24.260Z,3.60
2023-03-12T18:03:53.039Z,4.10
2023-03-12T18:06:25.799Z,4.10
2023-03-12T18:08:56.405Z,4.30
2023-03-12T18:11:25.073Z,4.20
2023-03-12T18:13:54.403Z,4.70
2023-03-12T18:16:23.901Z,4.90
2023-03-12T18:18:52.883Z,4.60
2023-03-12T18:21:21.790Z,4.60
2023-03-12T18:23:50.488Z,4.60
2023-03-12T18:26:19.699Z,4.90
2023-03-12T18:28:49.600Z,4.50
2023-03-12T18:31:17.897Z,4.10
2023-03-12T18:33:46.154Z,4.00
2023-03-12T18:36:14.471Z,3.90
2023-03-12T18:38:44.084Z,3.50
2023-03-12T18:41:13.292Z,3.40
2023-03-12T18:43:41.844Z,3.40
2023-03-12T18:46:11.570Z,3.40
2023-03-12T18:48:41.413Z,3.40
2023-03-12T18:51:12.068Z,3.60
2023-03-12T18:53:40.402Z,4.00
2023-03-12T18:56:14.099Z,3.60
2023-03-12T18:58:42.459Z,3.90
2023-03-12T19:01:12.113Z,3.80
2023-03-12T19:03:40.802Z,3.60
2023-03-12T19:06:11.862Z,3.60
2023-03-12T19:08:47.930Z,4.20
2023-03-12T19:11:16.871Z,3.30
2023-03-12T19:13:45.428Z,3.60
2023-03-12T19:16:22.040Z,3.30
2023-03-12T19:18:50.953Z,4.70
2023-03-12T19:21:19.045Z,3.60
2023-03-12T19:23:47.295Z,3.30
2023-03-12T19:26:16.470Z,3.40
2023-03-12T19:28:44.703Z,3.30
2023-03-12T19:31:15.280Z,3.40
2023-03-12T19:33:44.798Z,3.40
2023-03-12T19:36:13.879Z,3.70
2023-03-12T19:38:42.581Z,3.60
2023-03-12T19:41:14.902Z,3.20
2023-03-12T19:43:44.576Z,3.20
2023-03-12T19:46:13.131Z,3.60
2023-03-12T19:48:42.219Z,2.90
2023-03-12T19:51:11.224Z,2.70
2023-03-12T19:53:40.182Z,2.80
2023-03-12T19:56:08.369Z,3.00
2023-03-12T19:58:38.390Z,3.10
2023-03-12T20:01:06.689Z,2.60
2023-03-12T20:03:35.037Z,2.80
2023-03-12T20:06:04.231Z,2.80
2023-03-12T20:08:32.765Z,2.50
2023-03-12T20:11:03.477Z,3.10
2023-03-12T20:13:33.721Z,3.40
2023-03-12T20:16:02.210Z,2.60
2023-03-12T20:18:38.209Z,2.50
2023-03-12T20:21:06.647Z,2.20
2023-03-12T20:23:34.965Z,1.50
2023-03-12T20:26:03.667Z,1.70
2023-03-12T20:28:33.059Z,1.40
2023-03-12T20:31:12.384Z,1.10
2023-03-12T20:33:43.230Z,0.90
2023-03-12T20:36:12.577Z,0.80
2023-03-12T20:38:41.590Z,0.70
2023-03-12T20:41:14.215Z,0.70
2023-03-12T20:43:42.669Z,0.70
2023-03-12T20:46:12.136Z,0.50
2023-03-12T20:48:43.690Z,0.60
2023-03-12T20:51:11.859Z,0.60
2023-03-12T20:53:39.953Z,0.80
2023-03-12T20:56:08.640Z,0.70
2023-03-12T20:58:37.020Z,0.90
2023-03-12T21:01:07.345Z,0.70
2023-03-12T21:03:35.661Z,0.80
2023-03-12T21:06:04.492Z,1.00
2023-03-12T21:08:34.387Z,0.80
2023-03-12T21:11:06.200Z,0.90
2023-03-12T21:13:38.515Z,0.60
2023-03-12T21:16:07.760Z,0.60
2023-03-12T21:18:36.150Z,0.70
2023-03-12T21:21:07.804Z,0.80
2023-03-12T21:23:36.590Z,0.60
2023-03-12T21:26:08.976Z,0.90
2023-03-12T21:28:38.852Z,0.80
2023-03-12T21:31:08.940Z,0.80
2023-03-12T21:33:38.085Z,1.00
2023-03-12T21:36:07.470Z,0.90
2023-03-12T21:38:36.508Z,0.90
2023-03-12T21:41:09.752Z,1.20
2023-03-12T21:43:38.075Z,1.10
2023-03-12T21:46:08.265Z,0.60
2023-03-12T21:48:36.735Z,0.90
2023-03-12T21:51:07.383Z,0.80
2023-03-12T21:53:36.986Z,0.90
2023-03-12T21:56:06.453Z,1.00
2023-03-12T21:58:35.188Z,1.40
2023-03-12T22:01:11.161Z,1.10
2023-03-12T22:03:41.394Z,1.10
2023-03-12T22:06:10.229Z,1.70
2023-03-12T22:08:41.197Z,1.00
2023-03-12T22:11:10.878Z,1.10
2023-03-12T22:13:39.154Z,0.90
2023-03-12T22:16:12.158Z,0.90
2023-03-12T22:18:44.101Z,1.10
2023-03-12T22:21:14.881Z,1.10
2023-03-12T22:23:43.045Z,1.00
2023-03-12T22:26:11.162Z,0.90
2023-03-12T22:28:48.230Z,0.80
2023-03-12T22:31:16.657Z,0.90
2023-03-12T22:33:44.945Z,0.90
2023-03-12T22:36:13.789Z,0.90
2023-03-12T22:38:42.313Z,1.20
2023-03-12T22:41:28.947Z,1.20
2023-03-12T22:44:02.279Z,1.10
2023-03-12T22:46:35.511Z,1.00
2023-03-12T22:49:05.059Z,1.00
2023-03-12T22:51:34.420Z,0.80
2023-03-12T22:54:02.930Z,1.10
2023-03-12T22:56:31.418Z,1.00
2023-03-12T22:59:00.431Z,0.90
2023-03-12T23:01:29.159Z,1.10
2023-03-12T23:03:57.566Z,1.40
2023-03-12T23:06:26.671Z,1.30
2023-03-12T23:08:55.214Z,1.10
2023-03-12T23:11:29.568Z,1.00
2023-03-12T23:13:57.806Z,1.20
2023-03-12T23:16:26.251Z,1.10
2023-03-12T23:18:56.634Z,1.10
2023-03-12T23:21:25.357Z,0.70
2023-03-12T23:23:54.144Z,0.80
2023-03-12T23:26:27.051Z,1.20
2023-03-12T23:28:55.805Z,1.20
2023-03-12T23:31:28.169Z,1.20
2023-03-12T23:33:58.453Z,1.10
2023-03-12T23:36:32.016Z,1.10
2023-03-12T23:39:00.549Z,1.30
2023-03-12T23:41:31.892Z,1.20
2023-03-12T23:44:02.263Z,1.30
2023-03-12T23:46:31.090Z,1.40
2023-03-12T23:49:00.004Z,1.80
2023-03-12T23:51:30.942Z,2.60
2023-03-12T23:54:02.134Z,2.50
2023-03-12T23:56:38.095Z,3.10
2023-03-12T23:59:07.973Z,2.80
